Pine Run, Pennsylvania
Current Conditions -  °F | °C
As of 5:54 PM on Tuesday 21 Oct 2014 (Local Time) from KIPT Reporting Station
Overcast Overcast  
Wind Chill: 56°   Ceiling: 11000
Heat Index: 56°   Visibility: 10mi
Dew Point: 48°   Wind: 0mph
Humidity: 75%   Direction: NA
Pressure: 29.85"   Gusts: NA
Location:  41.2701°N, 77.1585°W
Report Text: KIPT 212154Z 00000KT 10SM FEW070 OVC110 13/09 A2985 RMK AO2 SLP110 T01330089
Loading
Personal Weather Stations






























Interactive Weather Map
Tropical Storm Tracking
New forecast layout! Learn more

10-Day Weather Forecast

Advertisements
Track Severe Weather on mobile